createdAt,value
2022-09-15T00:02:24.877Z,14.70
2022-09-15T00:05:26.819Z,14.70
2022-09-15T00:08:28.728Z,14.60
2022-09-15T00:11:32.568Z,14.50
2022-09-15T00:14:34.433Z,14.50
2022-09-15T00:17:36.308Z,14.40
2022-09-15T00:20:42.772Z,14.30
2022-09-15T00:23:44.829Z,14.30
2022-09-15T00:26:46.652Z,14.20
2022-09-15T00:29:48.544Z,14.20
2022-09-15T00:32:50.403Z,14.10
2022-09-15T00:35:53.448Z,14.10
2022-09-15T00:38:55.317Z,14.00
2022-09-15T00:41:57.135Z,14.00
2022-09-15T00:45:00.834Z,13.90
2022-09-15T00:48:02.724Z,13.90
2022-09-15T00:51:04.623Z,13.90
2022-09-15T00:54:12.793Z,13.80
2022-09-15T00:57:19.421Z,13.80
2022-09-15T01:00:22.745Z,13.80
2022-09-15T01:03:24.885Z,13.70
2022-09-15T01:06:40.266Z,13.70
2022-09-15T01:09:49.552Z,13.70
2022-09-15T01:12:51.520Z,13.60
2022-09-15T01:16:15.318Z,13.60
2022-09-15T01:19:37.350Z,13.50
2022-09-15T01:23:03.160Z,13.50
2022-09-15T01:26:05.043Z,13.40
2022-09-15T01:29:26.062Z,13.40
2022-09-15T01:33:04.052Z,13.30
2022-09-15T01:36:14.400Z,13.30
2022-09-15T01:39:18.356Z,13.30
2022-09-15T01:42:20.188Z,13.20
2022-09-15T01:45:26.765Z,13.20
2022-09-15T01:48:28.638Z,13.20
2022-09-15T01:51:30.879Z,13.20
2022-09-15T01:54:36.079Z,13.10
2022-09-15T01:57:37.972Z,13.10
2022-09-15T02:00:42.301Z,13.10
2022-09-15T02:03:55.577Z,13.10
2022-09-15T02:07:11.760Z,13.10
2022-09-15T02:10:37.836Z,13.00
2022-09-15T02:13:54.214Z,13.00
2022-09-15T02:16:56.891Z,13.00
2022-09-15T02:20:08.136Z,12.90
2022-09-15T02:23:18.959Z,12.90
2022-09-15T02:26:24.570Z,12.80
2022-09-15T02:29:27.053Z,12.80
2022-09-15T02:32:28.804Z,12.80
2022-09-15T02:35:31.059Z,12.80
2022-09-15T02:38:35.354Z,12.80
2022-09-15T02:41:37.385Z,12.80
2022-09-15T02:44:39.278Z,12.90
2022-09-15T02:47:41.123Z,12.90
2022-09-15T02:50:42.988Z,12.80
2022-09-15T02:53:45.668Z,12.80
2022-09-15T02:56:47.653Z,12.90
2022-09-15T03:00:08.084Z,12.90
2022-09-15T03:03:10.330Z,12.90
2022-09-15T03:06:19.848Z,12.80
2022-09-15T03:09:21.678Z,12.80
2022-09-15T03:12:23.761Z,12.70
2022-09-15T03:15:25.970Z,12.60
2022-09-15T03:18:27.839Z,12.60
2022-09-15T03:21:29.847Z,12.60
2022-09-15T03:24:31.688Z,12.60
2022-09-15T03:27:34.200Z,12.60
2022-09-15T03:30:35.972Z,12.60
2022-09-15T03:33:37.862Z,12.60
2022-09-15T03:36:39.776Z,12.70
2022-09-15T03:39:41.647Z,12.70
2022-09-15T03:42:43.495Z,12.80
2022-09-15T03:45:45.388Z,12.80
2022-09-15T03:48:47.605Z,12.90
2022-09-15T03:51:49.491Z,12.90
2022-09-15T03:54:51.357Z,12.80
2022-09-15T03:57:53.347Z,12.80
2022-09-15T04:00:55.225Z,12.80
2022-09-15T04:03:58.171Z,12.80
2022-09-15T04:07:00.015Z,12.80
2022-09-15T04:10:02.065Z,12.80
2022-09-15T04:13:03.900Z,12.80
2022-09-15T04:16:08.207Z,12.80
2022-09-15T04:19:10.744Z,12.70
2022-09-15T04:22:17.523Z,12.70
2022-09-15T04:25:19.802Z,12.70
2022-09-15T04:28:21.660Z,12.60
2022-09-15T04:31:23.692Z,12.60
2022-09-15T04:34:25.636Z,12.70
2022-09-15T04:37:27.523Z,12.60
2022-09-15T04:40:29.698Z,12.60
2022-09-15T04:43:31.888Z,12.70
2022-09-15T04:46:33.816Z,12.70
2022-09-15T04:49:35.697Z,12.80
2022-09-15T04:52:37.630Z,12.80
2022-09-15T04:55:39.500Z,12.80
2022-09-15T04:58:42.888Z,12.80
2022-09-15T05:01:44.912Z,12.90
2022-09-15T05:04:48.721Z,12.80
2022-09-15T05:07:50.629Z,12.80
2022-09-15T05:10:53.338Z,12.80
2022-09-15T05:13:55.201Z,12.80
2022-09-15T05:16:57.022Z,12.80
2022-09-15T05:20:01.926Z,12.90
2022-09-15T05:23:03.779Z,12.90
2022-09-15T05:26:07.195Z,12.90
2022-09-15T05:29:09.094Z,12.90
2022-09-15T05:32:10.983Z,12.90
2022-09-15T05:35:12.910Z,12.90
2022-09-15T05:38:15.726Z,12.90
2022-09-15T05:41:18.309Z,12.90
2022-09-15T05:44:21.487Z,12.90
2022-09-15T05:47:23.821Z,12.90
2022-09-15T05:50:25.663Z,12.90
2022-09-15T05:53:27.528Z,13.00
2022-09-15T05:56:29.609Z,13.00
2022-09-15T05:59:31.459Z,13.00
2022-09-15T06:02:33.370Z,13.00
2022-09-15T06:05:35.341Z,13.00
2022-09-15T06:08:41.444Z,13.00
2022-09-15T06:11:45.822Z,13.00
2022-09-15T06:14:51.092Z,13.00
2022-09-15T06:17:52.975Z,13.00
2022-09-15T06:20:54.792Z,13.10
2022-09-15T06:23:58.917Z,13.10
2022-09-15T06:27:00.863Z,13.20
2022-09-15T06:30:02.727Z,13.20
2022-09-15T06:33:04.548Z,13.20
2022-09-15T06:36:07.478Z,13.30
2022-09-15T06:39:09.331Z,13.30
2022-09-15T06:42:13.765Z,13.40
2022-09-15T06:45:17.094Z,13.40
2022-09-15T06:48:24.935Z,13.40
2022-09-15T06:51:31.382Z,13.50
2022-09-15T06:54:33.268Z,13.50
2022-09-15T06:57:36.108Z,13.50
2022-09-15T07:00:38.048Z,13.60
2022-09-15T07:03:41.518Z,13.60
2022-09-15T07:06:43.409Z,13.70
2022-09-15T07:09:48.890Z,13.70
2022-09-15T07:12:51.027Z,13.70
2022-09-15T07:15:57.472Z,13.80
2022-09-15T07:19:01.849Z,13.80
2022-09-15T07:22:03.685Z,13.90
2022-09-15T07:25:06.003Z,14.00
2022-09-15T07:28:07.884Z,14.10
2022-09-15T07:31:11.235Z,14.10
2022-09-15T07:34:13.132Z,14.20
2022-09-15T07:37:16.153Z,14.30
2022-09-15T07:40:18.386Z,14.40
2022-09-15T07:43:20.299Z,14.50
2022-09-15T07:46:23.073Z,14.60
2022-09-15T07:49:24.922Z,14.70
2022-09-15T07:52:26.808Z,14.70
2022-09-15T07:55:30.415Z,14.70
2022-09-15T07:58:33.021Z,14.80
2022-09-15T08:01:34.959Z,14.90
2022-09-15T08:04:36.813Z,15.00
2022-09-15T08:07:40.096Z,15.10
2022-09-15T08:10:41.981Z,15.10
2022-09-15T08:13:43.899Z,15.20
2022-09-15T08:16:45.981Z,15.30
2022-09-15T08:19:47.878Z,15.30
2022-09-15T08:22:49.788Z,15.30
2022-09-15T08:25:52.031Z,15.20
2022-09-15T08:28:53.986Z,15.30
2022-09-15T08:31:55.897Z,15.30
2022-09-15T08:34:57.727Z,15.40
2022-09-15T08:37:59.561Z,15.40
2022-09-15T08:41:06.544Z,15.50
2022-09-15T08:44:20.457Z,15.50
2022-09-15T08:47:36.963Z,15.60
2022-09-15T08:50:41.041Z,15.70
2022-09-15T08:53:45.905Z,15.80
2022-09-15T08:56:47.748Z,15.90
2022-09-15T08:59:49.591Z,16.00
2022-09-15T09:03:15.226Z,16.10
2022-09-15T09:06:38.548Z,16.10
2022-09-15T09:09:43.521Z,16.20
2022-09-15T09:12:51.221Z,16.30
2022-09-15T09:15:57.255Z,16.40
2022-09-15T09:19:14.804Z,16.50
2022-09-15T09:22:18.028Z,16.70
2022-09-15T09:25:28.357Z,16.90
2022-09-15T09:28:39.002Z,17.00
2022-09-15T09:31:41.003Z,17.10
2022-09-15T09:35:01.061Z,17.30
2022-09-15T09:38:02.892Z,17.40
2022-09-15T09:41:18.631Z,17.50
2022-09-15T09:44:20.553Z,17.60
2022-09-15T09:47:27.232Z,17.70
2022-09-15T09:50:34.050Z,17.90
2022-09-15T09:53:36.657Z,18.00
2022-09-15T09:56:38.698Z,18.20
2022-09-15T09:59:44.499Z,18.30
2022-09-15T10:02:47.091Z,18.40
2022-09-15T10:06:04.060Z,18.30
2022-09-15T10:09:13.923Z,18.30
2022-09-15T10:12:20.216Z,18.20
2022-09-15T10:15:26.124Z,18.10
2022-09-15T10:18:37.610Z,18.10
2022-09-15T10:21:39.738Z,18.10
2022-09-15T10:24:41.481Z,18.10
2022-09-15T10:27:43.401Z,18.10
2022-09-15T10:31:16.327Z,18.40
2022-09-15T10:34:31.111Z,18.40
2022-09-15T10:37:57.229Z,18.60
2022-09-15T10:41:20.616Z,18.60
2022-09-15T10:44:45.496Z,18.70
2022-09-15T10:48:24.975Z,18.90
2022-09-15T10:51:53.845Z,18.90
2022-09-15T10:55:10.568Z,19.10
2022-09-15T10:58:28.372Z,19.60
2022-09-15T11:01:30.238Z,19.80
2022-09-15T11:04:35.117Z,19.80
2022-09-15T11:07:46.350Z,19.60
2022-09-15T11:11:08.048Z,19.80
2022-09-15T11:14:10.398Z,19.90
2022-09-15T11:17:25.460Z,19.90
2022-09-15T11:20:49.323Z,20.20
2022-09-15T11:24:16.849Z,20.40
2022-09-15T11:27:25.101Z,20.80
2022-09-15T11:30:36.001Z,21.20
2022-09-15T11:33:45.214Z,21.30
2022-09-15T11:36:56.426Z,21.30
2022-09-15T11:40:25.258Z,21.60
2022-09-15T11:43:34.516Z,21.80
2022-09-15T11:46:50.512Z,21.90
2022-09-15T11:49:57.121Z,22.40
2022-09-15T11:53:19.273Z,21.80
2022-09-15T11:56:53.811Z,22.00
2022-09-15T12:00:00.788Z,21.50
2022-09-15T12:03:24.549Z,21.80
2022-09-15T12:06:49.438Z,22.50
2022-09-15T12:09:51.675Z,23.10
2022-09-15T12:12:53.934Z,23.00
2022-09-15T12:15:55.798Z,23.40
2022-09-15T12:19:15.689Z,24.20
2022-09-15T12:22:20.674Z,23.70
2022-09-15T12:25:26.706Z,23.40
2022-09-15T12:28:42.936Z,22.60
2022-09-15T12:31:45.916Z,22.20
2022-09-15T12:34:56.368Z,22.00
2022-09-15T12:37:58.712Z,21.50
2022-09-15T12:41:00.589Z,21.20
2022-09-15T12:44:14.739Z,21.00
2022-09-15T12:47:49.175Z,21.00
2022-09-15T12:50:55.942Z,20.90
2022-09-15T12:54:04.843Z,20.70
2022-09-15T12:57:08.121Z,20.40
2022-09-15T13:00:20.003Z,20.10
2022-09-15T13:03:28.858Z,19.90
2022-09-15T13:07:21.218Z,20.00
2022-09-15T13:10:34.768Z,19.70
2022-09-15T13:13:54.589Z,19.70
2022-09-15T13:16:58.400Z,19.60
2022-09-15T13:20:02.012Z,19.40
2022-09-15T13:23:03.864Z,19.20
2022-09-15T13:26:06.671Z,19.10
2022-09-15T13:29:09.255Z,19.10
2022-09-15T13:32:16.756Z,19.20
2022-09-15T13:35:46.658Z,19.20
2022-09-15T13:39:16.185Z,19.30
2022-09-15T13:42:40.184Z,19.50
2022-09-15T13:45:54.611Z,20.00
2022-09-15T13:49:26.149Z,20.10
2022-09-15T13:52:52.214Z,20.10
2022-09-15T13:55:55.638Z,20.00
2022-09-15T13:59:10.355Z,19.80
2022-09-15T14:02:14.944Z,19.80
2022-09-15T14:05:17.043Z,19.90
2022-09-15T14:08:20.863Z,19.90
2022-09-15T14:11:25.880Z,19.80
2022-09-15T14:14:40.808Z,19.70
2022-09-15T14:17:46.014Z,19.60
2022-09-15T14:21:01.047Z,19.70
2022-09-15T14:24:06.039Z,19.80
2022-09-15T14:27:08.880Z,19.80
2022-09-15T14:30:31.280Z,19.90
2022-09-15T14:33:38.395Z,19.70
2022-09-15T14:36:40.694Z,19.40
2022-09-15T14:39:48.683Z,19.00
2022-09-15T14:42:50.642Z,19.40
2022-09-15T14:45:57.032Z,19.90
2022-09-15T14:49:11.661Z,20.40
2022-09-15T14:52:25.706Z,20.70
2022-09-15T14:55:32.668Z,20.80
2022-09-15T14:58:39.590Z,20.90
2022-09-15T15:01:46.351Z,21.10
2022-09-15T15:04:51.848Z,21.20
2022-09-15T15:07:55.377Z,21.20
2022-09-15T15:10:57.186Z,21.30
2022-09-15T15:13:59.058Z,21.50
2022-09-15T15:17:02.509Z,21.50
2022-09-15T15:20:10.593Z,21.80
2022-09-15T15:23:23.847Z,22.00
2022-09-15T15:26:35.520Z,22.00
2022-09-15T15:29:43.229Z,21.90
2022-09-15T15:32:45.343Z,21.50
2022-09-15T15:35:47.399Z,21.30
2022-09-15T15:38:52.085Z,21.30
2022-09-15T15:42:08.528Z,21.40
2022-09-15T15:45:16.294Z,21.10
2022-09-15T15:48:18.149Z,21.00
2022-09-15T15:51:20.687Z,20.80
2022-09-15T15:54:23.195Z,20.50
2022-09-15T15:57:27.425Z,20.30
2022-09-15T16:00:38.391Z,19.90
2022-09-15T16:03:40.362Z,19.60
2022-09-15T16:06:42.212Z,19.50
2022-09-15T16:09:44.205Z,19.50
2022-09-15T16:12:46.044Z,19.30
2022-09-15T16:15:48.066Z,19.20
2022-09-15T16:18:50.175Z,19.20
2022-09-15T16:21:52.091Z,19.20
2022-09-15T16:24:55.212Z,19.00
2022-09-15T16:27:57.041Z,18.90
2022-09-15T16:30:59.076Z,18.90
2022-09-15T16:34:00.998Z,18.90
2022-09-15T16:37:02.892Z,18.80
2022-09-15T16:40:05.314Z,18.80
2022-09-15T16:43:10.403Z,18.70
2022-09-15T16:46:12.851Z,18.60
2022-09-15T16:49:14.798Z,18.40
2022-09-15T16:52:16.890Z,18.20
2022-09-15T16:55:23.393Z,17.90
2022-09-15T16:58:25.219Z,17.80
2022-09-15T17:01:27.076Z,17.70
2022-09-15T17:04:28.995Z,17.70
2022-09-15T17:07:30.832Z,17.60
2022-09-15T17:10:33.589Z,17.50
2022-09-15T17:13:35.432Z,17.50
2022-09-15T17:16:37.261Z,17.40
2022-09-15T17:19:39.100Z,17.40
2022-09-15T17:22:41.117Z,17.40
2022-09-15T17:25:48.977Z,17.30
2022-09-15T17:28:51.045Z,17.30
2022-09-15T17:31:52.901Z,17.30
2022-09-15T17:34:54.784Z,17.20
2022-09-15T17:37:56.619Z,17.10
2022-09-15T17:40:58.795Z,17.20
2022-09-15T17:44:00.650Z,17.10
2022-09-15T17:47:03.041Z,17.10
2022-09-15T17:50:05.474Z,17.00
2022-09-15T17:53:26.647Z,17.00
2022-09-15T17:56:28.504Z,16.90
2022-09-15T17:59:30.368Z,16.80
2022-09-15T18:02:32.395Z,16.80
2022-09-15T18:05:35.553Z,16.80
2022-09-15T18:08:37.496Z,16.70
2022-09-15T18:11:39.749Z,16.60
2022-09-15T18:14:41.512Z,16.50
2022-09-15T18:17:43.752Z,16.40
2022-09-15T18:20:45.636Z,16.30
2022-09-15T18:23:47.498Z,16.20
2022-09-15T18:26:49.352Z,16.00
2022-09-15T18:29:51.500Z,15.90
2022-09-15T18:32:53.632Z,15.90
2022-09-15T18:35:56.532Z,15.80
2022-09-15T18:38:58.351Z,15.70
2022-09-15T18:42:00.180Z,15.60
2022-09-15T18:45:02.207Z,15.50
2022-09-15T18:48:04.157Z,15.40
2022-09-15T18:51:09.693Z,15.20
2022-09-15T18:54:11.548Z,15.20
2022-09-15T18:57:13.501Z,15.00
2022-09-15T19:00:25.493Z,14.90
2022-09-15T19:03:27.456Z,14.80
2022-09-15T19:06:29.708Z,14.80
2022-09-15T19:09:31.592Z,14.70
2022-09-15T19:12:34.537Z,14.80
2022-09-15T19:15:36.502Z,14.90
2022-09-15T19:18:38.469Z,14.80
2022-09-15T19:21:40.376Z,14.80
2022-09-15T19:24:42.231Z,14.70
2022-09-15T19:27:44.070Z,14.80
2022-09-15T19:30:45.997Z,14.70
2022-09-15T19:33:47.938Z,14.70
2022-09-15T19:36:49.816Z,14.70
2022-09-15T19:39:51.744Z,14.70
2022-09-15T19:42:53.658Z,14.80
2022-09-15T19:45:56.128Z,14.80
2022-09-15T19:48:58.920Z,14.70
2022-09-15T19:52:00.837Z,14.80
2022-09-15T19:55:03.179Z,14.80
2022-09-15T19:58:04.911Z,15.00
2022-09-15T20:01:06.834Z,15.10
2022-09-15T20:04:09.627Z,15.10
2022-09-15T20:07:12.547Z,15.10
2022-09-15T20:10:15.035Z,15.20
2022-09-15T20:13:17.112Z,15.20
2022-09-15T20:16:19.379Z,15.20
2022-09-15T20:19:21.295Z,15.20
2022-09-15T20:22:23.722Z,15.20
2022-09-15T20:25:25.620Z,15.30
2022-09-15T20:28:27.813Z,15.30
2022-09-15T20:31:29.965Z,15.20
2022-09-15T20:34:31.855Z,15.20
2022-09-15T20:37:37.468Z,15.20
2022-09-15T20:40:39.652Z,15.20
2022-09-15T20:43:42.450Z,15.20
2022-09-15T20:46:44.353Z,15.20
2022-09-15T20:49:46.220Z,15.20
2022-09-15T20:52:48.952Z,15.10
2022-09-15T20:55:50.949Z,15.10
2022-09-15T20:58:57.052Z,15.10
2022-09-15T21:01:58.971Z,15.00
2022-09-15T21:05:00.832Z,15.00
2022-09-15T21:08:02.781Z,14.90
2022-09-15T21:11:05.306Z,14.80
2022-09-15T21:14:07.619Z,14.70
2022-09-15T21:17:09.399Z,14.70
2022-09-15T21:20:11.245Z,14.70
2022-09-15T21:23:13.130Z,14.70
2022-09-15T21:26:16.716Z,14.70
2022-09-15T21:29:18.534Z,14.70
2022-09-15T21:32:20.498Z,14.70
2022-09-15T21:35:22.335Z,14.70
2022-09-15T21:38:24.162Z,14.70
2022-09-15T21:41:28.770Z,14.70
2022-09-15T21:44:30.754Z,14.70
2022-09-15T21:47:34.128Z,14.70
2022-09-15T21:50:36.341Z,14.70
2022-09-15T21:53:38.264Z,14.70
2022-09-15T21:56:40.287Z,14.70
2022-09-15T21:59:42.169Z,14.70
2022-09-15T22:02:43.983Z,14.70
2022-09-15T22:05:46.561Z,14.60
2022-09-15T22:08:48.470Z,14.60
2022-09-15T22:11:50.349Z,14.60
2022-09-15T22:14:52.299Z,14.60
2022-09-15T22:17:54.129Z,14.50
2022-09-15T22:21:07.309Z,14.50
2022-09-15T22:24:10.706Z,14.50
2022-09-15T22:27:12.656Z,14.50
2022-09-15T22:30:14.546Z,14.40
2022-09-15T22:33:16.425Z,14.40
2022-09-15T22:36:19.905Z,14.40
2022-09-15T22:39:27.021Z,14.30
2022-09-15T22:42:40.444Z,14.20
2022-09-15T22:45:42.345Z,14.10
2022-09-15T22:48:44.231Z,14.00
2022-09-15T22:51:46.418Z,13.90
2022-09-15T22:54:48.293Z,13.80
2022-09-15T22:57:50.156Z,13.70
2022-09-15T23:00:52.030Z,13.60
2022-09-15T23:03:55.758Z,13.60
2022-09-15T23:06:57.697Z,13.50
2022-09-15T23:09:59.550Z,13.40
2022-09-15T23:13:01.430Z,13.30
2022-09-15T23:16:03.638Z,13.30
2022-09-15T23:19:05.520Z,13.20
2022-09-15T23:22:07.685Z,13.20
2022-09-15T23:25:09.595Z,13.20
2022-09-15T23:28:11.461Z,13.10
2022-09-15T23:31:13.683Z,13.10
2022-09-15T23:34:15.647Z,13.00
2022-09-15T23:37:17.493Z,13.00
2022-09-15T23:40:19.410Z,13.10
2022-09-15T23:43:21.308Z,13.20
2022-09-15T23:46:23.208Z,13.20
2022-09-15T23:49:25.103Z,13.20
2022-09-15T23:52:26.983Z,13.30
2022-09-15T23:55:28.821Z,13.20
2022-09-15T23:58:30.720Z,13.30
